Time;durP1;ratioP1;P1;durP2;ratioP2;P2;SDS_P1;SDS_P2;PMS_P1;PMS_P2;Temp;Humidity;BMP_temperature;BMP_pressure;BME280_temperature;BME280_humidity;BME280_pressure;Samples;Min_cycle;Max_cycle;Signal;HPM_P1;HPM_P2
2022/10/18 00:00:00;;;;;;;7.43;6.50;;;;;;;;;;1031461;28;20025;-83
2022/10/18 00:00:31;;;;;;;9.98;6.93;;;;;;;;;;1028025;28;20019;-83
2022/10/18 00:01:02;;;;;;;8.90;7.47;;;;;;;;;;1035131;28;20109;-83
2022/10/18 00:01:33;;;;;;;9.68;6.72;;;;;;;;;;1035126;28;20026;-83
2022/10/18 00:02:05;;;;;;;11.70;6.72;;;;;;;;;;1028909;28;20022;-83
2022/10/18 00:02:36;;;;;;;9.05;6.40;;;;;;;;;;1032134;28;20047;-83
2022/10/18 00:03:07;;;;;;;11.50;7.80;;;;;;;;;;1034907;28;20024;-83
2022/10/18 00:03:38;;;;;;;12.10;7.53;;;;;;;;;;1036332;28;20045;-83
2022/10/18 00:04:09;;;;;;;9.18;6.57;;;;;;;;;;1035497;28;20048;-83
2022/10/18 00:04:40;;;;;;;9.43;6.50;;;;;;;;;;1037606;28;20096;-82
2022/10/18 00:05:11;;;;;;;11.50;6.57;;;;;;;;;;1035609;28;20133;-83
2022/10/18 00:05:42;;;;;;;9.95;5.72;;;;;;;;;;1035455;28;20117;-83
2022/10/18 00:06:13;;;;;;;7.50;5.97;;;;;;;;;;1035473;28;20103;-83
2022/10/18 00:06:44;;;;;;;11.82;6.47;;;;;;;;;;1034953;28;20722;-83
2022/10/18 00:07:15;;;;;;;11.63;6.15;;;;;;;;;;1034956;28;20125;-83
2022/10/18 00:07:46;;;;;;;10.77;6.38;;;;;;;;;;1031612;28;20414;-83
2022/10/18 00:08:17;;;;;;;10.02;6.40;;;;;;;;;;1035319;28;20014;-83
2022/10/18 00:08:48;;;;;;;9.30;6.30;;;;;;;;;;1037788;28;20481;-83
2022/10/18 00:09:19;;;;;;;9.50;6.80;;;;;;;;;;1032020;28;20556;-83
2022/10/18 00:09:50;;;;;;;14.02;6.82;;;;;;;;;;1035360;28;20045;-83
2022/10/18 00:10:23;;;;;;;9.93;6.25;;;;;;;;;;1031787;28;20023;-82
2022/10/18 00:10:54;;;;;;;14.50;7.43;;;;;;;;;;1036558;28;20170;-83
2022/10/18 00:11:25;;;;;;;11.32;6.82;;;;;;;;;;1038956;28;20018;-82
2022/10/18 00:11:56;;;;;;;10.70;6.53;;;;;;;;;;1031999;28;20011;-82
2022/10/18 00:12:27;;;;;;;14.60;6.75;;;;;;;;;;1030869;28;20076;-82
2022/10/18 00:12:58;;;;;;;9.38;6.20;;;;;;;;;;1031019;28;20401;-83
2022/10/18 00:13:29;;;;;;;10.90;5.95;;;;;;;;;;1030694;28;20701;-83
2022/10/18 00:14:00;;;;;;;11.35;6.43;;;;;;;;;;1031355;28;20026;-82
2022/10/18 00:14:31;;;;;;;13.50;6.80;;;;;;;;;;1033027;28;20022;-83
2022/10/18 00:15:03;;;;;;;11.80;6.95;;;;;;;;;;1033514;28;20113;-83
2022/10/18 00:15:34;;;;;;;8.15;6.30;;;;;;;;;;1035572;28;20028;-83
2022/10/18 00:16:09;;;;;;;12.30;5.90;;;;;;;;;;1034037;28;20022;-83
2022/10/18 00:16:40;;;;;;;11.25;6.95;;;;;;;;;;1034989;28;20081;-83
2022/10/18 00:17:11;;;;;;;14.48;7.10;;;;;;;;;;1037636;28;20071;-83
2022/10/18 00:17:42;;;;;;;11.52;6.30;;;;;;;;;;1036274;28;20101;-83
2022/10/18 00:18:13;;;;;;;9.50;6.68;;;;;;;;;;1031951;28;20038;-82
2022/10/18 00:18:46;;;;;;;15.50;6.33;;;;;;;;;;1031503;28;20370;-83
2022/10/18 00:19:17;;;;;;;9.10;6.25;;;;;;;;;;1036278;28;20268;-82
2022/10/18 00:19:49;;;;;;;14.23;6.78;;;;;;;;;;1033778;28;20125;-83
2022/10/18 00:20:20;;;;;;;10.75;6.95;;;;;;;;;;1028937;28;20122;-83
2022/10/18 00:20:58;;;;;;;12.40;6.70;;;;;;;;;;1029341;28;20027;-83
2022/10/18 00:21:28;;;;;;;12.57;6.32;;;;;;;;;;1032028;28;20303;-83
2022/10/18 00:21:59;;;;;;;20.42;7.43;;;;;;;;;;1032079;28;20030;-82
2022/10/18 00:22:31;;;;;;;11.30;6.38;;;;;;;;;;1032025;28;20495;-83
2022/10/18 00:23:02;;;;;;;11.25;6.95;;;;;;;;;;1035205;28;20033;-83
2022/10/18 00:23:33;;;;;;;12.63;6.88;;;;;;;;;;1034416;28;20026;-83
2022/10/18 00:24:05;;;;;;;10.18;6.72;;;;;;;;;;1035322;28;20060;-83
2022/10/18 00:24:36;;;;;;;14.07;7.35;;;;;;;;;;1035063;28;20381;-83
2022/10/18 00:25:07;;;;;;;9.45;7.43;;;;;;;;;;1034494;28;20457;-83
2022/10/18 00:25:38;;;;;;;9.90;6.72;;;;;;;;;;1036639;28;20010;-83
2022/10/18 00:26:12;;;;;;;8.50;7.53;;;;;;;;;;1035912;28;20026;-83
2022/10/18 00:26:43;;;;;;;9.18;6.93;;;;;;;;;;1038636;28;20025;-83
2022/10/18 00:27:14;;;;;;;10.45;7.20;;;;;;;;;;1035844;28;20120;-82
2022/10/18 00:27:45;;;;;;;8.23;7.25;;;;;;;;;;1038682;28;20074;-83
2022/10/18 00:28:16;;;;;;;9.27;7.20;;;;;;;;;;1037089;28;20032;-83
2022/10/18 00:28:50;;;;;;;8.30;6.47;;;;;;;;;;1035034;28;20022;-83
2022/10/18 00:29:20;;;;;;;7.03;6.32;;;;;;;;;;1037906;28;20534;-82
2022/10/18 00:29:52;;;;;;;11.40;6.07;;;;;;;;;;1037651;28;20523;-83
2022/10/18 00:30:24;;;;;;;7.03;6.32;;;;;;;;;;1039522;28;20268;-82
2022/10/18 00:30:55;;;;;;;11.77;7.03;;;;;;;;;;1039274;28;20668;-83
2022/10/18 00:31:30;;;;;;;7.75;6.15;;;;;;;;;;1040942;28;20469;-83
2022/10/18 00:32:01;;;;;;;13.68;6.68;;;;;;;;;;1035979;28;20487;-83
2022/10/18 00:32:35;;;;;;;11.35;7.55;;;;;;;;;;1036406;28;20516;-83
2022/10/18 00:33:06;;;;;;;10.32;6.15;;;;;;;;;;1035448;28;20044;-83
2022/10/18 00:33:37;;;;;;;16.45;7.60;;;;;;;;;;1035576;28;20034;-83
2022/10/18 00:34:13;;;;;;;12.25;6.45;;;;;;;;;;1039491;28;20029;-83
2022/10/18 00:34:44;;;;;;;10.65;6.95;;;;;;;;;;1035639;28;20452;-83
2022/10/18 00:35:15;;;;;;;13.68;7.03;;;;;;;;;;1036530;28;20477;-83
2022/10/18 00:35:46;;;;;;;7.82;5.95;;;;;;;;;;1037274;28;20076;-83
2022/10/18 00:36:17;;;;;;;8.70;6.55;;;;;;;;;;1031702;28;20030;-83
2022/10/18 00:36:48;;;;;;;8.30;6.55;;;;;;;;;;1035462;28;20449;-83
2022/10/18 00:37:19;;;;;;;11.73;6.55;;;;;;;;;;1035034;28;20964;-83
2022/10/18 00:37:50;;;;;;;8.77;6.25;;;;;;;;;;1036940;28;20396;-83
2022/10/18 00:38:21;;;;;;;10.60;5.93;;;;;;;;;;1036410;28;20377;-82
2022/10/18 00:38:52;;;;;;;9.85;7.20;;;;;;;;;;1031753;28;20076;-82
2022/10/18 00:39:23;;;;;;;7.78;5.85;;;;;;;;;;1035320;28;20504;-83
2022/10/18 00:39:54;;;;;;;12.15;6.68;;;;;;;;;;1035220;28;20481;-83
2022/10/18 00:40:25;;;;;;;9.60;6.70;;;;;;;;;;1034706;28;20034;-83
2022/10/18 00:40:56;;;;;;;12.87;6.03;;;;;;;;;;1034958;28;20273;-83
2022/10/18 00:41:28;;;;;;;10.02;6.85;;;;;;;;;;1034226;28;20273;-82
2022/10/18 00:41:59;;;;;;;11.93;6.18;;;;;;;;;;1034142;28;20026;-83
2022/10/18 00:42:32;;;;;;;9.05;6.72;;;;;;;;;;1031915;28;20030;-83
2022/10/18 00:43:03;;;;;;;18.23;6.97;;;;;;;;;;1034733;28;20014;-83
2022/10/18 00:43:50;;;;;;;12.63;6.97;;;;;;;;;;1034804;28;20089;-83
2022/10/18 00:44:23;;;;;;;9.30;5.90;;;;;;;;;;1037522;28;20125;-83
2022/10/18 00:45:15;;;;;;;10.00;5.95;;;;;;;;;;1037858;28;20030;-83
2022/10/18 00:45:46;;;;;;;12.52;6.82;;;;;;;;;;1038348;28;20022;-83
2022/10/18 00:46:17;;;;;;;11.20;6.60;;;;;;;;;;1041297;28;20061;-83
2022/10/18 00:46:48;;;;;;;13.20;5.80;;;;;;;;;;1035934;28;20058;-83
2022/10/18 00:47:20;;;;;;;14.75;6.85;;;;;;;;;;1037307;28;20029;-83
2022/10/18 00:47:59;;;;;;;9.27;5.75;;;;;;;;;;1031794;28;20034;-82
2022/10/18 00:48:30;;;;;;;9.65;6.50;;;;;;;;;;1032837;28;20026;-83
2022/10/18 00:49:03;;;;;;;8.85;5.95;;;;;;;;;;1030902;28;20026;-83
2022/10/18 00:49:39;;;;;;;12.10;5.63;;;;;;;;;;1029085;28;20113;-83
2022/10/18 00:50:10;;;;;;;9.40;6.32;;;;;;;;;;1025230;28;20031;-82
2022/10/18 00:50:42;;;;;;;13.20;6.35;;;;;;;;;;1031935;28;20073;-82
2022/10/18 00:51:13;;;;;;;9.50;6.18;;;;;;;;;;1035727;28;20074;-82
2022/10/18 00:51:56;;;;;;;9.88;6.20;;;;;;;;;;1035493;28;20036;-82
2022/10/18 00:52:36;;;;;;;8.93;6.45;;;;;;;;;;1039660;28;20081;-83
2022/10/18 00:53:09;;;;;;;8.88;6.60;;;;;;;;;;1038825;28;20025;-83
2022/10/18 00:53:40;;;;;;;8.55;6.25;;;;;;;;;;1039207;28;20063;-82
2022/10/18 00:54:12;;;;;;;12.35;6.00;;;;;;;;;;1031708;28;20037;-83
2022/10/18 00:54:44;;;;;;;10.45;6.18;;;;;;;;;;1035762;28;20030;-83
2022/10/18 00:55:15;;;;;;;10.68;5.75;;;;;;;;;;1038832;28;20400;-83
2022/10/18 00:55:47;;;;;;;9.25;6.35;;;;;;;;;;1039150;28;20452;-83
2022/10/18 00:56:18;;;;;;;7.90;6.03;;;;;;;;;;1043687;28;20052;-83
2022/10/18 00:56:49;;;;;;;8.93;5.85;;;;;;;;;;1042765;28;20719;-83
2022/10/18 00:57:20;;;;;;;8.88;6.35;;;;;;;;;;1038561;28;20132;-83
2022/10/18 00:57:51;;;;;;;9.43;6.60;;;;;;;;;;1038151;28;20025;-83
2022/10/18 00:58:22;;;;;;;8.77;5.55;;;;;;;;;;1038160;28;20137;-83
2022/10/18 00:58:53;;;;;;;8.45;6.32;;;;;;;;;;1030294;28;20497;-83
2022/10/18 00:59:25;;;;;;;7.78;5.65;;;;;;;;;;1034435;28;20527;-83
2022/10/18 00:59:56;;;;;;;11.35;6.13;;;;;;;;;;1033463;28;20342;-83
2022/10/18 01:00:27;;;;;;;10.95;6.32;;;;;;;;;;1030788;28;20025;-82
2022/10/18 01:00:58;;;;;;;7.82;6.03;;;;;;;;;;1027376;28;20027;-83
2022/10/18 01:01:29;;;;;;;8.13;6.05;;;;;;;;;;1025985;28;20027;-83
2022/10/18 01:02:00;;;;;;;6.68;5.75;;;;;;;;;;1030676;28;20058;-83
2022/10/18 01:02:31;;;;;;;10.98;6.13;;;;;;;;;;1031408;28;20073;-83
2022/10/18 01:03:02;;;;;;;10.68;6.22;;;;;;;;;;1034676;28;20030;-82
2022/10/18 01:03:34;;;;;;;11.85;6.30;;;;;;;;;;1035180;28;20473;-82
2022/10/18 01:04:05;;;;;;;7.68;6.00;;;;;;;;;;1035069;28;20021;-83
2022/10/18 01:04:36;;;;;;;12.90;6.05;;;;;;;;;;1037178;28;20032;-83
2022/10/18 01:05:07;;;;;;;16.33;7.53;;;;;;;;;;1035442;28;20033;-83
2022/10/18 01:05:42;;;;;;;9.27;5.50;;;;;;;;;;1032405;28;20038;-83
2022/10/18 01:06:13;;;;;;;6.90;5.47;;;;;;;;;;1033876;28;20041;-83
2022/10/18 01:06:53;;;;;;;13.55;6.70;;;;;;;;;;1038420;28;20159;-83
2022/10/18 01:07:33;;;;;;;9.43;6.13;;;;;;;;;;1032394;28;20100;-83
2022/10/18 01:08:04;;;;;;;15.27;6.72;;;;;;;;;;1033286;28;20152;-83
2022/10/18 01:08:41;;;;;;;12.07;6.10;;;;;;;;;;1030432;28;20046;-83
2022/10/18 01:09:16;;;;;;;11.10;7.05;;;;;;;;;;1034476;28;20272;-83
2022/10/18 01:10:10;;;;;;;10.15;6.03;;;;;;;;;;1035173;28;20030;-83
2022/10/18 01:10:41;;;;;;;10.30;6.95;;;;;;;;;;1034296;28;20128;-83
2022/10/18 01:11:25;;;;;;;9.83;6.03;;;;;;;;;;1028057;28;20024;-83
2022/10/18 01:12:09;;;;;;;17.33;6.88;;;;;;;;;;1036885;28;20285;-83
2022/10/18 01:12:52;;;;;;;12.73;6.97;;;;;;;;;;1031911;28;20030;-83
2022/10/18 01:13:34;;;;;;;8.95;6.03;;;;;;;;;;1037518;28;20064;-83
2022/10/18 01:14:14;;;;;;;10.60;6.15;;;;;;;;;;1037838;28;20034;-82
2022/10/18 01:14:53;;;;;;;10.70;5.75;;;;;;;;;;1039549;28;20424;-83
2022/10/18 01:15:47;;;;;;;18.00;7.68;;;;;;;;;;1034775;28;20034;-83
2022/10/18 01:16:31;;;;;;;10.70;6.25;;;;;;;;;;1038350;28;20052;-83
2022/10/18 01:17:16;;;;;;;10.60;7.47;;;;;;;;;;1034917;28;20415;-83
2022/10/18 01:17:56;;;;;;;10.15;6.03;;;;;;;;;;1032592;28;20030;-83
2022/10/18 01:18:31;;;;;;;10.70;6.43;;;;;;;;;;1034517;28;20041;-82
2022/10/18 01:19:02;;;;;;;8.48;5.68;;;;;;;;;;1033384;28;20537;-82
2022/10/18 01:19:33;;;;;;;10.97;6.10;;;;;;;;;;1032984;28;20832;-83
2022/10/18 01:20:24;;;;;;;11.30;6.80;;;;;;;;;;1031861;28;20558;-83
2022/10/18 01:21:00;;;;;;;12.00;6.25;;;;;;;;;;1021496;28;20275;-82
2022/10/18 01:21:34;;;;;;;9.75;6.32;;;;;;;;;;1030653;28;20105;-83
2022/10/18 01:22:11;;;;;;;11.90;6.90;;;;;;;;;;1033680;28;20041;-83
2022/10/18 01:22:44;;;;;;;8.85;6.72;;;;;;;;;;1030086;28;20594;-83
2022/10/18 01:23:36;;;;;;;10.40;6.70;;;;;;;;;;1030604;28;20018;-82
2022/10/18 01:24:10;;;;;;;16.90;7.43;;;;;;;;;;1033747;28;20030;-82
2022/10/18 01:24:43;;;;;;;9.38;6.70;;;;;;;;;;1030136;28;20038;-83
2022/10/18 01:25:26;;;;;;;8.10;6.50;;;;;;;;;;1035531;28;20028;-82
2022/10/18 01:26:16;;;;;;;12.32;6.32;;;;;;;;;;1034877;28;20053;-83
2022/10/18 01:27:06;;;;;;;12.13;6.38;;;;;;;;;;1039452;28;20478;-83
2022/10/18 01:27:45;;;;;;;14.63;6.10;;;;;;;;;;1035280;28;20136;-83
2022/10/18 01:28:31;;;;;;;8.30;5.50;;;;;;;;;;1034817;28;20034;-83
2022/10/18 01:29:08;;;;;;;10.05;6.47;;;;;;;;;;1030574;28;20053;-83
2022/10/18 01:29:39;;;;;;;10.25;6.70;;;;;;;;;;1034687;28;20934;-83
2022/10/18 01:30:15;;;;;;;8.60;5.88;;;;;;;;;;1032333;28;20536;-83
2022/10/18 01:30:49;;;;;;;8.95;6.82;;;;;;;;;;1033338;28;20129;-83
2022/10/18 01:31:26;;;;;;;11.00;6.70;;;;;;;;;;1032057;28;20081;-82
2022/10/18 01:31:58;;;;;;;11.90;7.47;;;;;;;;;;1035634;28;20030;-83
2022/10/18 01:32:36;;;;;;;10.35;7.30;;;;;;;;;;1035455;28;20014;-83
2022/10/18 01:33:16;;;;;;;8.73;5.93;;;;;;;;;;1034271;28;20120;-83
2022/10/18 01:33:49;;;;;;;10.30;7.55;;;;;;;;;;1032558;28;20056;-83
2022/10/18 01:34:21;;;;;;;10.90;7.40;;;;;;;;;;1030679;28;20114;-82
2022/10/18 01:34:56;;;;;;;12.63;7.25;;;;;;;;;;1034595;28;20022;-83
2022/10/18 01:35:29;;;;;;;12.50;7.85;;;;;;;;;;1030968;28;20630;-83
2022/10/18 01:36:04;;;;;;;10.07;6.43;;;;;;;;;;1029181;28;20023;-82
2022/10/18 01:36:36;;;;;;;12.02;6.53;;;;;;;;;;1026756;28;20031;-83
2022/10/18 01:37:09;;;;;;;12.52;6.53;;;;;;;;;;1035033;28;20085;-83
2022/10/18 01:37:42;;;;;;;10.60;6.78;;;;;;;;;;1030534;28;20027;-82
2022/10/18 01:38:16;;;;;;;9.23;6.95;;;;;;;;;;1031895;28;20118;-83
2022/10/18 01:38:49;;;;;;;11.63;6.85;;;;;;;;;;1036155;28;20050;-83
2022/10/18 01:39:23;;;;;;;11.48;7.28;;;;;;;;;;1035815;28;20417;-83
2022/10/18 01:39:56;;;;;;;13.05;7.55;;;;;;;;;;1037231;28;20025;-82
2022/10/18 01:40:28;;;;;;;9.75;7.45;;;;;;;;;;1034183;28;20026;-82
2022/10/18 01:41:00;;;;;;;12.30;7.25;;;;;;;;;;1029828;28;20481;-82
2022/10/18 01:41:32;;;;;;;13.43;7.18;;;;;;;;;;1034712;28;20033;-83
2022/10/18 01:42:05;;;;;;;11.40;7.97;;;;;;;;;;1035249;28;20021;-83
2022/10/18 01:42:36;;;;;;;12.23;6.65;;;;;;;;;;1031474;28;20026;-83
2022/10/18 01:43:09;;;;;;;10.53;7.00;;;;;;;;;;1031148;28;20033;-83
2022/10/18 01:43:42;;;;;;;8.90;6.90;;;;;;;;;;1034593;28;20364;-83
2022/10/18 01:44:16;;;;;;;10.43;7.35;;;;;;;;;;1034632;28;20429;-83
2022/10/18 01:44:47;;;;;;;15.75;8.05;;;;;;;;;;1032628;28;20513;-83
2022/10/18 01:45:19;;;;;;;14.07;8.05;;;;;;;;;;1032637;28;20014;-83
2022/10/18 01:45:53;;;;;;;10.75;6.63;;;;;;;;;;1032672;28;20026;-83
2022/10/18 01:46:25;;;;;;;11.50;7.22;;;;;;;;;;1035644;28;20467;-83
2022/10/18 01:46:56;;;;;;;12.02;7.40;;;;;;;;;;1037348;28;20022;-83
2022/10/18 01:47:28;;;;;;;16.10;7.63;;;;;;;;;;1035952;28;20500;-84
2022/10/18 01:48:00;;;;;;;16.77;8.57;;;;;;;;;;1034996;28;20413;-83
2022/10/18 01:48:32;;;;;;;14.32;7.57;;;;;;;;;;1031867;28;20625;-83
2022/10/18 01:49:03;;;;;;;11.63;8.20;;;;;;;;;;1035273;28;20041;-84
2022/10/18 01:49:34;;;;;;;25.27;9.35;;;;;;;;;;1035608;28;20026;-84
2022/10/18 01:50:06;;;;;;;14.45;7.63;;;;;;;;;;1031765;28;20026;-83
2022/10/18 01:50:37;;;;;;;9.65;7.35;;;;;;;;;;1030588;28;20061;-83
2022/10/18 01:51:08;;;;;;;12.75;7.80;;;;;;;;;;1032902;28;20014;-83
2022/10/18 01:51:39;;;;;;;10.23;7.00;;;;;;;;;;1030963;28;20030;-83
2022/10/18 01:52:13;;;;;;;10.00;6.70;;;;;;;;;;1033320;28;20025;-84
2022/10/18 01:52:51;;;;;;;11.68;7.15;;;;;;;;;;1032770;28;20054;-84
2022/10/18 01:53:23;;;;;;;9.32;7.20;;;;;;;;;;1028588;28;20031;-84
2022/10/18 01:53:54;;;;;;;11.68;7.25;;;;;;;;;;1033832;28;20037;-83
2022/10/18 01:54:31;;;;;;;12.13;7.70;;;;;;;;;;1030829;28;20022;-83
2022/10/18 01:55:03;;;;;;;9.63;7.15;;;;;;;;;;1032586;28;20026;-84
2022/10/18 01:55:50;;;;;;;11.57;7.65;;;;;;;;;;1035349;28;20087;-83
2022/10/18 01:56:24;;;;;;;9.15;5.95;;;;;;;;;;1038767;28;20082;-83
2022/10/18 01:56:55;;;;;;;10.73;6.35;;;;;;;;;;1038545;28;20279;-84
2022/10/18 01:57:26;;;;;;;12.73;7.33;;;;;;;;;;1036753;28;20025;-83
2022/10/18 01:58:09;;;;;;;10.83;7.27;;;;;;;;;;1038500;28;20291;-84
2022/10/18 01:58:40;;;;;;;11.32;6.93;;;;;;;;;;1037163;28;20276;-83
2022/10/18 01:59:23;;;;;;;12.57;6.53;;;;;;;;;;1033796;28;20030;-83
2022/10/18 01:59:59;;;;;;;10.13;6.63;;;;;;;;;;1034808;28;20274;-83
2022/10/18 02:00:38;;;;;;;12.23;6.68;;;;;;;;;;1035471;28;20028;-83
2022/10/18 02:01:17;;;;;;;8.68;5.72;;;;;;;;;;1036343;28;20021;-84
2022/10/18 02:01:55;;;;;;;17.90;7.63;;;;;;;;;;1038891;28;20035;-83
2022/10/18 02:02:36;;;;;;;10.57;7.38;;;;;;;;;;1037033;28;20022;-83
2022/10/18 02:03:07;;;;;;;8.70;5.80;;;;;;;;;;1038743;28;20029;-83
2022/10/18 02:03:42;;;;;;;14.20;7.13;;;;;;;;;;1038356;28;20029;-83
2022/10/18 02:04:23;;;;;;;11.68;7.05;;;;;;;;;;1034103;28;20300;-83
2022/10/18 02:05:10;;;;;;;9.20;6.38;;;;;;;;;;1033971;28;20049;-83
2022/10/18 02:06:00;;;;;;;11.95;7.68;;;;;;;;;;1038414;28;20021;-83
2022/10/18 02:06:34;;;;;;;11.50;7.97;;;;;;;;;;1037052;28;20065;-82
2022/10/18 02:07:21;;;;;;;12.20;7.75;;;;;;;;;;1036127;28;20043;-83
2022/10/18 02:07:58;;;;;;;11.82;8.32;;;;;;;;;;1031242;28;20022;-83
2022/10/18 02:08:41;;;;;;;10.70;7.45;;;;;;;;;;1038135;28;20045;-84
2022/10/18 02:09:18;;;;;;;11.43;7.03;;;;;;;;;;1037946;28;20025;-84
2022/10/18 02:09:56;;;;;;;10.48;6.45;;;;;;;;;;1040394;28;20029;-83
2022/10/18 02:10:40;;;;;;;13.48;7.47;;;;;;;;;;1040388;28;20005;-84
2022/10/18 02:11:13;;;;;;;11.57;7.43;;;;;;;;;;1035255;28;20022;-83
2022/10/18 02:11:44;;;;;;;13.90;6.75;;;;;;;;;;1038464;28;20021;-84
2022/10/18 02:12:16;;;;;;;18.67;7.00;;;;;;;;;;1035662;28;20026;-84
2022/10/18 02:12:47;;;;;;;7.78;6.57;;;;;;;;;;1037345;28;20029;-84
2022/10/18 02:13:19;;;;;;;11.43;6.93;;;;;;;;;;1035218;28;20105;-84
2022/10/18 02:13:53;;;;;;;14.52;7.50;;;;;;;;;;1038482;28;20234;-84
2022/10/18 02:14:25;;;;;;;12.45;7.85;;;;;;;;;;1036261;28;20459;-83
2022/10/18 02:14:57;;;;;;;9.90;6.97;;;;;;;;;;1032083;28;20018;-84
2022/10/18 02:15:32;;;;;;;10.27;6.80;;;;;;;;;;1034606;28;20026;-84
2022/10/18 02:16:05;;;;;;;10.48;7.68;;;;;;;;;;1037301;28;20030;-84
2022/10/18 02:16:38;;;;;;;12.60;7.47;;;;;;;;;;1037579;28;20361;-84
2022/10/18 02:17:11;;;;;;;14.18;7.80;;;;;;;;;;1038562;28;20063;-84
2022/10/18 02:17:42;;;;;;;9.50;7.22;;;;;;;;;;1034423;28;20555;-83
2022/10/18 02:18:20;;;;;;;12.40;8.90;;;;;;;;;;1036226;28;20029;-84
2022/10/18 02:19:10;;;;;;;8.80;7.25;;;;;;;;;;1034572;28;20026;-84
2022/10/18 02:19:43;;;;;;;9.68;6.63;;;;;;;;;;1036058;28;20250;-84
2022/10/18 02:20:15;;;;;;;19.42;8.35;;;;;;;;;;1036432;28;20429;-85
2022/10/18 02:20:47;;;;;;;9.98;7.45;;;;;;;;;;1036996;28;20026;-84
2022/10/18 02:21:19;;;;;;;13.38;8.18;;;;;;;;;;1037788;28;20587;-84
2022/10/18 02:21:51;;;;;;;9.07;7.75;;;;;;;;;;1036672;28;20029;-84
2022/10/18 02:22:23;;;;;;;10.05;7.25;;;;;;;;;;1036847;28;20062;-83
2022/10/18 02:22:55;;;;;;;11.93;7.75;;;;;;;;;;1036715;28;20030;-83
2022/10/18 02:23:26;;;;;;;9.38;6.60;;;;;;;;;;1038804;28;20071;-84
2022/10/18 02:23:58;;;;;;;16.55;7.88;;;;;;;;;;1036315;28;20029;-84
2022/10/18 02:24:37;;;;;;;11.50;7.05;;;;;;;;;;1038183;28;20671;-84
2022/10/18 02:25:13;;;;;;;11.02;6.95;;;;;;;;;;1038703;28;20025;-84
2022/10/18 02:25:44;;;;;;;11.57;7.53;;;;;;;;;;1034963;28;20070;-84
2022/10/18 02:26:15;;;;;;;12.82;8.10;;;;;;;;;;1033338;28;20022;-84
2022/10/18 02:26:46;;;;;;;11.85;7.20;;;;;;;;;;1034578;28;20030;-83
2022/10/18 02:27:17;;;;;;;9.23;6.68;;;;;;;;;;1034952;28;20075;-84
2022/10/18 02:27:49;;;;;;;10.20;6.95;;;;;;;;;;1034193;28;20018;-84
2022/10/18 02:28:20;;;;;;;13.13;6.63;;;;;;;;;;1031812;28;20031;-83
2022/10/18 02:28:51;;;;;;;8.40;7.18;;;;;;;;;;1034308;28;20517;-83
2022/10/18 02:29:22;;;;;;;10.80;7.18;;;;;;;;;;1038885;28;20374;-83
2022/10/18 02:29:53;;;;;;;9.40;7.50;;;;;;;;;;1038214;28;20033;-84
2022/10/18 02:30:29;;;;;;;9.32;7.25;;;;;;;;;;1034866;28;20420;-84
2022/10/18 02:31:10;;;;;;;10.68;7.93;;;;;;;;;;1038386;28;20029;-84
2022/10/18 02:31:45;;;;;;;10.23;6.68;;;;;;;;;;1038792;28;20396;-84
2022/10/18 02:32:23;;;;;;;13.20;6.40;;;;;;;;;;1038579;28;20079;-83
2022/10/18 02:33:06;;;;;;;11.30;6.35;;;;;;;;;;1036297;28;20128;-84
2022/10/18 02:33:57;;;;;;;9.10;6.85;;;;;;;;;;1038389;28;20431;-84
2022/10/18 02:34:42;;;;;;;10.73;6.63;;;;;;;;;;1034913;28;20512;-84
2022/10/18 02:35:18;;;;;;;11.27;5.82;;;;;;;;;;1034760;28;20133;-84
2022/10/18 02:35:54;;;;;;;6.45;5.18;;;;;;;;;;1041316;28;20025;-84
2022/10/18 02:36:27;;;;;;;9.35;6.15;;;;;;;;;;1036644;28;20081;-84
2022/10/18 02:36:59;;;;;;;19.33;6.90;;;;;;;;;;1036430;28;20065;-84
2022/10/18 02:37:34;;;;;;;6.97;5.55;;;;;;;;;;1037868;28;20030;-83
2022/10/18 02:38:06;;;;;;;9.40;6.07;;;;;;;;;;1036207;28;20033;-84
2022/10/18 02:38:39;;;;;;;13.07;6.45;;;;;;;;;;1040779;28;20040;-84
2022/10/18 02:39:24;;;;;;;8.85;5.72;;;;;;;;;;1035449;28;20037;-84
2022/10/18 02:39:55;;;;;;;8.50;5.53;;;;;;;;;;1035278;28;20026;-84
2022/10/18 02:40:26;;;;;;;8.55;5.88;;;;;;;;;;1033945;28;20093;-83
2022/10/18 02:40:57;;;;;;;5.43;4.43;;;;;;;;;;1034941;28;20106;-84
2022/10/18 02:41:30;;;;;;;6.60;5.25;;;;;;;;;;1035745;28;20030;-83
2022/10/18 02:42:05;;;;;;;7.25;5.70;;;;;;;;;;1034198;28;20710;-83
2022/10/18 02:42:43;;;;;;;5.68;5.10;;;;;;;;;;1032343;28;20096;-84
2022/10/18 02:43:14;;;;;;;6.15;5.18;;;;;;;;;;1035745;28;20140;-83
2022/10/18 02:43:45;;;;;;;9.55;5.32;;;;;;;;;;1037094;28;20025;-84
2022/10/18 02:44:16;;;;;;;6.10;4.80;;;;;;;;;;1038475;28;20039;-84
2022/10/18 02:44:47;;;;;;;5.88;4.80;;;;;;;;;;1039501;28;20296;-84
2022/10/18 02:45:18;;;;;;;6.07;5.07;;;;;;;;;;1038551;28;20026;-84
2022/10/18 02:45:49;;;;;;;9.32;5.18;;;;;;;;;;1037426;28;20295;-85
2022/10/18 02:46:20;;;;;;;6.85;4.95;;;;;;;;;;1032217;28;20034;-84
2022/10/18 02:46:52;;;;;;;11.65;5.97;;;;;;;;;;1038779;28;20037;-84
2022/10/18 02:47:23;;;;;;;8.23;5.03;;;;;;;;;;1032689;28;20480;-84
2022/10/18 02:47:54;;;;;;;11.68;5.15;;;;;;;;;;1035956;28;20444;-84
2022/10/18 02:48:24;;;;;;;6.93;4.15;;;;;;;;;;1035334;28;20037;-84
2022/10/18 02:48:55;;;;;;;6.90;5.30;;;;;;;;;;1037314;28;20062;-84
2022/10/18 02:49:26;;;;;;;6.20;4.47;;;;;;;;;;1034007;28;20120;-84
2022/10/18 02:49:57;;;;;;;8.25;4.80;;;;;;;;;;1037666;28;20061;-84
2022/10/18 02:50:28;;;;;;;7.70;4.38;;;;;;;;;;1033718;28;20088;-85
2022/10/18 02:50:59;;;;;;;8.00;4.47;;;;;;;;;;1034537;28;20026;-84
2022/10/18 02:51:30;;;;;;;5.32;4.63;;;;;;;;;;1036130;28;20473;-84
2022/10/18 02:52:01;;;;;;;8.55;4.93;;;;;;;;;;1032760;28;20125;-84
2022/10/18 02:52:32;;;;;;;12.95;5.50;;;;;;;;;;1037978;28;20032;-84
2022/10/18 02:53:03;;;;;;;6.30;4.97;;;;;;;;;;1037467;28;20025;-83
2022/10/18 02:53:34;;;;;;;7.75;4.70;;;;;;;;;;1034635;28;20654;-84
2022/10/18 02:54:07;;;;;;;5.40;4.20;;;;;;;;;;1035731;28;20072;-84
2022/10/18 02:54:38;;;;;;;5.75;5.00;;;;;;;;;;1038243;28;20071;-84
2022/10/18 02:55:09;;;;;;;5.22;4.68;;;;;;;;;;1036361;28;20038;-84
2022/10/18 02:55:40;;;;;;;6.43;4.90;;;;;;;;;;1038110;28;20029;-84
2022/10/18 02:56:11;;;;;;;8.65;5.00;;;;;;;;;;1038189;28;20037;-84
2022/10/18 02:56:42;;;;;;;6.68;4.78;;;;;;;;;;1035658;28;20141;-85
2022/10/18 02:57:13;;;;;;;7.20;4.78;;;;;;;;;;1037755;28;20848;-84
2022/10/18 02:57:44;;;;;;;9.02;4.45;;;;;;;;;;1038470;28;20037;-84
2022/10/18 02:58:14;;;;;;;7.25;4.45;;;;;;;;;;1037065;28;20037;-84
2022/10/18 02:58:45;;;;;;;5.10;4.50;;;;;;;;;;1039651;28;20511;-84
2022/10/18 02:59:16;;;;;;;6.45;4.30;;;;;;;;;;1039491;28;20034;-84
2022/10/18 02:59:47;;;;;;;9.65;5.18;;;;;;;;;;1028512;28;20042;-84
2022/10/18 03:00:18;;;;;;;5.93;4.60;;;;;;;;;;1035552;28;20037;-84
2022/10/18 03:00:50;;;;;;;6.45;4.57;;;;;;;;;;1033714;28;20084;-84
2022/10/18 03:01:21;;;;;;;5.63;4.43;;;;;;;;;;1039124;28;20033;-84
2022/10/18 03:01:52;;;;;;;9.13;4.55;;;;;;;;;;1039714;28;20018;-84
2022/10/18 03:02:24;;;;;;;8.68;4.78;;;;;;;;;;1038292;28;20124;-84
2022/10/18 03:02:55;;;;;;;7.32;4.13;;;;;;;;;;1037600;28;20037;-84
2022/10/18 03:03:26;;;;;;;4.57;4.18;;;;;;;;;;1036500;28;20026;-84
2022/10/18 03:03:57;;;;;;;5.75;4.50;;;;;;;;;;1035745;28;20463;-84
2022/10/18 03:04:28;;;;;;;5.57;4.40;;;;;;;;;;1032767;28;20055;-84
2022/10/18 03:04:59;;;;;;;6.10;5.05;;;;;;;;;;1035115;28;20026;-84
2022/10/18 03:05:30;;;;;;;9.68;4.88;;;;;;;;;;1035480;28;20128;-84
2022/10/18 03:06:01;;;;;;;13.23;5.38;;;;;;;;;;1035263;28;20113;-84
2022/10/18 03:06:32;;;;;;;8.68;5.45;;;;;;;;;;1030779;28;20141;-84
2022/10/18 03:07:03;;;;;;;5.53;4.63;;;;;;;;;;1031295;28;20034;-84
2022/10/18 03:07:34;;;;;;;4.88;3.92;;;;;;;;;;1028769;28;20118;-82
2022/10/18 03:08:05;;;;;;;5.70;5.05;;;;;;;;;;1035281;28;20026;-83
2022/10/18 03:08:37;;;;;;;5.72;5.13;;;;;;;;;;1034593;28;20030;-84
2022/10/18 03:09:09;;;;;;;8.80;4.97;;;;;;;;;;1036358;28;20029;-84
2022/10/18 03:09:40;;;;;;;6.55;4.65;;;;;;;;;;1035201;28;20033;-83
2022/10/18 03:10:11;;;;;;;8.32;5.50;;;;;;;;;;1031225;28;20026;-84
2022/10/18 03:10:45;;;;;;;5.55;4.95;;;;;;;;;;1031388;28;20026;-84
2022/10/18 03:11:16;;;;;;;7.45;5.05;;;;;;;;;;1031997;28;20030;-84
2022/10/18 03:11:47;;;;;;;6.10;5.50;;;;;;;;;;1033217;28;20027;-84
2022/10/18 03:12:18;;;;;;;7.25;5.60;;;;;;;;;;1035266;28;20607;-84
2022/10/18 03:12:49;;;;;;;5.57;5.03;;;;;;;;;;1036926;28;20030;-83
2022/10/18 03:13:20;;;;;;;10.48;5.55;;;;;;;;;;1036453;28;20028;-83
2022/10/18 03:13:51;;;;;;;9.90;5.53;;;;;;;;;;1030818;28;20030;-85
2022/10/18 03:14:22;;;;;;;6.80;5.45;;;;;;;;;;1032111;28;20022;-84
2022/10/18 03:14:52;;;;;;;6.28;5.40;;;;;;;;;;1034633;28;20025;-84
2022/10/18 03:15:23;;;;;;;6.50;5.38;;;;;;;;;;1031750;28;20097;-84
2022/10/18 03:15:54;;;;;;;5.60;5.10;;;;;;;;;;1035288;28;20018;-84
2022/10/18 03:16:25;;;;;;;7.55;4.90;;;;;;;;;;1036790;28;20025;-85
2022/10/18 03:16:56;;;;;;;7.43;5.35;;;;;;;;;;1039035;28;20036;-84
2022/10/18 03:17:27;;;;;;;6.57;4.63;;;;;;;;;;1038251;28;20499;-84
2022/10/18 03:17:58;;;;;;;7.65;5.32;;;;;;;;;;1038439;28;20524;-84
2022/10/18 03:18:29;;;;;;;10.68;5.75;;;;;;;;;;1032146;28;20031;-84
2022/10/18 03:19:00;;;;;;;7.68;6.18;;;;;;;;;;1039515;28;20018;-84
2022/10/18 03:19:31;;;;;;;7.13;5.78;;;;;;;;;;1040215;28;20068;-84